Last 30 Days

Kelseyville (Clark Drive)

Daily Data | America/Los_Angeles
as of 5/18/21 4:59 PM PDT
Date Daily Max Temp (°F) Time of Max Temp Daily Min Temp (°F) Time of Min Temp Hrs <= 32F (hrs) Hrs <= 28F (hrs) Hrs 70-85F (hrs) Hrs > 95F (hrs) Powdery Mildew Stress (pts) GDDs (DL) GDDs (Mx/Mn) Seas GDDs (DL) Seas GDDs (Smpl) Chilling <=45F (hrs) Chill Hrs 32-45F (hrs) Utah Chilling (Units) Degree Hrs (hrs) Bat Volt Min Day (V)
5/17/21 82.6 1505 43.6 0604 0.0 0.0 8.43 0.00 100 14.1 13.1 526 410 0.8 0.8 0.5 108.5 12.9
5/16/21 84.0 1334 47.6 0536 0.0 0.0 10.58 0.00 90 16.6 15.8 512 397 0.0 0.0 0.0 148.2 12.9
5/15/21 85.5 1418 44.6 0455 0.0 0.0 8.24 0.00 70 13.9 15.1 495 381 0.8 0.8 0.0 99.6 12.8
5/14/21 87.7 1321 46.0 0612 0.0 0.0 4.73 0.00 50 16.4 16.9 481 366 0.0 0.0 0.5 161.8 12.9
5/13/21 92.1 1421 44.3 0558 0.0 0.0 3.36 0.00 60 19.8 18.2 465 349 0.9 0.9 0.0 227.5 12.9
5/12/21 91.1 1455 43.9 0613 0.0 0.0 2.64 0.00 70 19.2 17.5 445 331 1.0 1.0 0.0 224.4 12.9
5/11/21 90.7 1611 43.0 0617 0.0 0.0 2.85 0.00 80 18.8 16.8 426 313 2.3 2.3 0.5 220.1 12.9
5/10/21 89.5 1541 39.7 0603 0.0 0.0 4.08 0.00 90 17.3 14.6 407 296 4.1 4.1 0.5 195.4 12.9
5/9/21 82.2 1458 40.8 0627 0.0 0.0 8.81 0.00 100 13.1 11.5 390 282 3.1 3.1 1.0 108.6 12.9
5/8/21 84.6 1625 36.7 0643 0.0 0.0 9.63 0.00 100 15.1 10.6 377 270 6.6 6.6 0.5 144.2 12.9
5/7/21 74.6 1516 39.4 0642 0.0 0.0 5.22 0.00 90 8.8 7.0 362 260 6.0 6.0 3.0 43.7 12.8
5/6/21 76.2 1509 46.9 0605 0.0 0.0 7.83 0.00 100 12.2 11.6 353 252 0.0 0.0 1.5 72.3 12.9
5/5/21 90.3 1503 43.0 0631 0.0 0.0 2.69 0.00 90 18.7 16.7 340 241 2.0 2.0 0.0 208.0 12.9
5/4/21 86.1 1507 42.9 0625 0.0 0.0 10.07 0.00 100 15.6 14.5 322 224 1.0 1.0 0.5 152.9 12.9
5/3/21 85.1 1531 39.9 0619 0.0 0.0 8.94 0.00 100 14.3 12.5 306 210 5.1 5.1 0.5 127.7 12.9
5/2/21 78.0 1507 40.5 0535 0.0 0.0 7.31 0.00 100 11.2 9.2 292 197 3.4 3.4 1.5 74.2 12.9
5/1/21 76.4 1458 46.4 0621 0.0 0.0 7.86 0.00 100 11.8 11.4 281 188 0.0 0.0 1.0 69.6 12.8
4/30/21 85.6 1621 41.4 0711 0.0 0.0 9.17 0.00 80 14.7 13.5 269 177 4.0 4.0 0.0 134.0 12.9
4/29/21 88.7 1511 38.3 0554 0.0 0.0 3.25 0.00 60 15.6 13.5 254 163 5.5 5.5 1.0 170.1 12.8
4/28/21 85.6 1609 35.7 0632 0.0 0.0 8.83 0.00 70 13.4 10.6 239 150 7.0 7.0 1.5 128.6 12.9
4/27/21 75.0 1641 31.5 0630 0.3 0.0 4.95 0.00 50 8.5 3.3 225 139 9.0 8.8 3.0 45.3 12.9
4/26/21 62.6 1523 32.1 0313 0.0 0.0 0.00 0.00 60 3.0 0.0 217 136 11.5 11.5 5.0 0.0 12.9
4/25/21 58.9 1607 36.7 0101 0.0 0.0 0.00 0.00 70 1.4 0.0 214 136 9.4 9.4 6.0 0.0 12.9
4/24/21 60.8 1434 45.5 0059 0.0 0.0 0.00 0.00 80 2.3 3.2 212 136 0.0 0.0 4.0 0.0 12.9
4/23/21 77.5 1454 38.6 0634 0.0 0.0 5.78 0.00 90 10.0 8.1 210 133 4.4 4.4 1.0 57.8 12.9
4/22/21 78.4 1443 37.0 0628 0.0 0.0 7.88 0.00 100 11.6 7.7 200 125 6.5 6.5 0.5 80.1 12.9
4/21/21 79.7 1608 37.3 0654 0.0 0.0 8.52 0.00 100 11.6 8.5 188 117 6.5 6.5 2.0 94.0 12.9
4/20/21 72.0 1602 37.9 0658 0.0 0.0 1.11 0.00 80 7.8 4.9 177 108 5.1 5.1 2.0 21.7 12.9
4/19/21 83.2 1438 38.6 0616 0.0 0.0 8.57 0.00 90 13.1 10.9 169 103 4.4 4.4 1.0 112.5 12.9
4/18/21 86.0 1537 34.8 0511 0.0 0.0 9.58 0.00 70 14.8 10.4 156 92 7.2 7.2 0.5 148.6 12.8
Max 92.1 - 47.6 - 0.3 0.0 10.58 0.00 - 19.8 18.2 - - 11.5 11.5 6.0 227.5 12.9
Avg - - - - 0.0 0.0 6.03 0.00 - 12.8 10.9 - - 3.9 3.9 1.3 - -
Min 58.9 - 31.5 - 0.0 0.0 0.00 0.00 - 1.4 0.0 - - 0.0 0.0 0.0 0.0 12.8
Total - - - - 0.3 0.0 180.91 0.00 - 384.6 327.6 - - 117.5 117.2 39.0 - -